sensor_id;sensor_type;location;lat;lon;timestamp;temperature;humidity
14192;DHT22;7177;48.572;7.838;2022-08-03T00:01:39;21.20;99.90
14192;DHT22;7177;48.572;7.838;2022-08-03T00:04:05;21.00;99.90
14192;DHT22;7177;48.572;7.838;2022-08-03T00:06:31;21.10;99.90
14192;DHT22;7177;48.572;7.838;2022-08-03T00:08:56;20.80;99.90
14192;DHT22;7177;48.572;7.838;2022-08-03T00:11:22;20.80;99.90
14192;DHT22;7177;48.572;7.838;2022-08-03T00:13:48;20.60;99.90
14192;DHT22;7177;48.572;7.838;2022-08-03T00:16:13;20.70;99.90
14192;DHT22;7177;48.572;7.838;2022-08-03T00:18:39;20.70;99.90
14192;DHT22;7177;48.572;7.838;2022-08-03T00:21:05;20.70;99.90
14192;DHT22;7177;48.572;7.838;2022-08-03T00:23:31;20.70;99.90
14192;DHT22;7177;48.572;7.838;2022-08-03T00:25:56;20.70;99.90
14192;DHT22;7177;48.572;7.838;2022-08-03T00:28:22;20.80;99.90
14192;DHT22;7177;48.572;7.838;2022-08-03T00:33:14;20.70;99.90
14192;DHT22;7177;48.572;7.838;2022-08-03T00:35:40;20.70;99.90
14192;DHT22;7177;48.572;7.838;2022-08-03T00:38:06;20.60;99.90
14192;DHT22;7177;48.572;7.838;2022-08-03T00:40:32;20.60;99.90
14192;DHT22;7177;48.572;7.838;2022-08-03T00:43:00;20.60;99.90
14192;DHT22;7177;48.572;7.838;2022-08-03T00:45:35;20.60;99.90
14192;DHT22;7177;48.572;7.838;2022-08-03T00:48:02;20.60;99.90
14192;DHT22;7177;48.572;7.838;2022-08-03T00:50:30;20.60;99.90
14192;DHT22;7177;48.572;7.838;2022-08-03T00:52:57;20.60;99.90
14192;DHT22;7177;48.572;7.838;2022-08-03T00:55:23;20.60;99.90
14192;DHT22;7177;48.572;7.838;2022-08-03T00:57:50;20.50;99.90
14192;DHT22;7177;48.572;7.838;2022-08-03T01:00:18;20.50;99.90
14192;DHT22;7177;48.572;7.838;2022-08-03T01:02:44;20.40;99.90
14192;DHT22;7177;48.572;7.838;2022-08-03T01:05:10;20.30;99.90
14192;DHT22;7177;48.572;7.838;2022-08-03T01:13:38;20.10;99.90
14192;DHT22;7177;48.572;7.838;2022-08-03T01:16:15;20.10;99.90
14192;DHT22;7177;48.572;7.838;2022-08-03T01:19:06;20.00;99.90
14192;DHT22;7177;48.572;7.838;2022-08-03T01:27:37;20.00;99.90
14192;DHT22;7177;48.572;7.838;2022-08-03T01:30:07;20.10;99.90
14192;DHT22;7177;48.572;7.838;2022-08-03T01:32:45;20.10;99.90
14192;DHT22;7177;48.572;7.838;2022-08-03T01:35:20;20.10;99.90
14192;DHT22;7177;48.572;7.838;2022-08-03T01:37:53;20.10;99.90
14192;DHT22;7177;48.572;7.838;2022-08-03T01:40:21;20.00;99.90
14192;DHT22;7177;48.572;7.838;2022-08-03T01:42:49;20.00;99.90
14192;DHT22;7177;48.572;7.838;2022-08-03T01:45:17;20.00;99.90
14192;DHT22;7177;48.572;7.838;2022-08-03T01:47:44;20.00;99.90
14192;DHT22;7177;48.572;7.838;2022-08-03T01:50:12;20.10;99.90
14192;DHT22;7177;48.572;7.838;2022-08-03T01:52:39;20.00;99.90
14192;DHT22;7177;48.572;7.838;2022-08-03T01:55:07;19.90;99.90
14192;DHT22;7177;48.572;7.838;2022-08-03T01:57:34;19.90;99.90
14192;DHT22;7177;48.572;7.838;2022-08-03T02:00:02;19.70;99.90
14192;DHT22;7177;48.572;7.838;2022-08-03T02:02:29;19.60;99.90
14192;DHT22;7177;48.572;7.838;2022-08-03T02:04:56;19.50;99.90
14192;DHT22;7177;48.572;7.838;2022-08-03T02:07:23;19.50;99.90
14192;DHT22;7177;48.572;7.838;2022-08-03T02:09:50;19.50;99.90
14192;DHT22;7177;48.572;7.838;2022-08-03T02:12:17;19.60;99.90
14192;DHT22;7177;48.572;7.838;2022-08-03T02:14:44;19.60;99.90
14192;DHT22;7177;48.572;7.838;2022-08-03T02:17:13;19.60;99.90
14192;DHT22;7177;48.572;7.838;2022-08-03T02:19:41;19.70;99.90
14192;DHT22;7177;48.572;7.838;2022-08-03T02:22:09;19.80;99.90
14192;DHT22;7177;48.572;7.838;2022-08-03T02:24:36;19.80;99.90
14192;DHT22;7177;48.572;7.838;2022-08-03T02:27:04;19.80;99.90
14192;DHT22;7177;48.572;7.838;2022-08-03T02:29:33;19.80;99.90
14192;DHT22;7177;48.572;7.838;2022-08-03T02:32:01;19.80;99.90
14192;DHT22;7177;48.572;7.838;2022-08-03T02:34:30;19.90;99.90
14192;DHT22;7177;48.572;7.838;2022-08-03T02:36:58;19.90;99.90
14192;DHT22;7177;48.572;7.838;2022-08-03T02:39:27;19.90;99.90
14192;DHT22;7177;48.572;7.838;2022-08-03T02:41:56;19.80;99.90
14192;DHT22;7177;48.572;7.838;2022-08-03T02:44:27;19.80;99.90
14192;DHT22;7177;48.572;7.838;2022-08-03T02:46:59;19.60;99.90
14192;DHT22;7177;48.572;7.838;2022-08-03T02:49:26;19.60;99.90
14192;DHT22;7177;48.572;7.838;2022-08-03T02:51:52;19.60;99.90
14192;DHT22;7177;48.572;7.838;2022-08-03T02:54:19;19.60;99.90
14192;DHT22;7177;48.572;7.838;2022-08-03T02:56:47;19.60;99.90
14192;DHT22;7177;48.572;7.838;2022-08-03T02:59:13;19.70;99.90
14192;DHT22;7177;48.572;7.838;2022-08-03T03:01:40;19.80;99.90
14192;DHT22;7177;48.572;7.838;2022-08-03T03:04:06;19.80;99.90
14192;DHT22;7177;48.572;7.838;2022-08-03T03:06:34;19.70;99.90
14192;DHT22;7177;48.572;7.838;2022-08-03T03:09:00;19.70;99.90
14192;DHT22;7177;48.572;7.838;2022-08-03T03:11:26;19.70;99.90
14192;DHT22;7177;48.572;7.838;2022-08-03T03:13:53;19.70;99.90
14192;DHT22;7177;48.572;7.838;2022-08-03T03:16:21;19.70;99.90
14192;DHT22;7177;48.572;7.838;2022-08-03T03:18:47;19.80;99.90
14192;DHT22;7177;48.572;7.838;2022-08-03T03:21:16;19.80;99.90
14192;DHT22;7177;48.572;7.838;2022-08-03T03:23:43;19.80;99.90
14192;DHT22;7177;48.572;7.838;2022-08-03T03:26:12;19.80;99.90
14192;DHT22;7177;48.572;7.838;2022-08-03T03:28:39;19.70;99.90
14192;DHT22;7177;48.572;7.838;2022-08-03T03:31:06;19.70;99.90
14192;DHT22;7177;48.572;7.838;2022-08-03T03:33:35;19.60;99.90
14192;DHT22;7177;48.572;7.838;2022-08-03T03:36:02;19.60;99.90
14192;DHT22;7177;48.572;7.838;2022-08-03T03:38:29;19.60;99.90
14192;DHT22;7177;48.572;7.838;2022-08-03T03:40:55;19.70;99.90
14192;DHT22;7177;48.572;7.838;2022-08-03T03:43:22;19.70;99.90
14192;DHT22;7177;48.572;7.838;2022-08-03T03:45:48;19.80;99.90
14192;DHT22;7177;48.572;7.838;2022-08-03T03:48:14;19.90;99.90
14192;DHT22;7177;48.572;7.838;2022-08-03T03:50:39;20.00;99.90
14192;DHT22;7177;48.572;7.838;2022-08-03T03:53:11;20.00;99.90
14192;DHT22;7177;48.572;7.838;2022-08-03T03:55:37;19.90;99.90
14192;DHT22;7177;48.572;7.838;2022-08-03T03:58:03;19.80;99.90
14192;DHT22;7177;48.572;7.838;2022-08-03T04:00:29;19.80;99.90
14192;DHT22;7177;48.572;7.838;2022-08-03T04:02:55;19.90;99.90
14192;DHT22;7177;48.572;7.838;2022-08-03T04:05:21;19.90;99.90
14192;DHT22;7177;48.572;7.838;2022-08-03T04:08:08;20.10;99.90
14192;DHT22;7177;48.572;7.838;2022-08-03T04:11:19;20.10;99.90
14192;DHT22;7177;48.572;7.838;2022-08-03T04:14:07;20.10;99.90
14192;DHT22;7177;48.572;7.838;2022-08-03T04:16:37;20.10;99.90
14192;DHT22;7177;48.572;7.838;2022-08-03T04:21:50;20.20;99.90
14192;DHT22;7177;48.572;7.838;2022-08-03T04:24:18;20.20;99.90
14192;DHT22;7177;48.572;7.838;2022-08-03T04:26:45;20.20;99.90
14192;DHT22;7177;48.572;7.838;2022-08-03T04:29:13;20.10;99.90
14192;DHT22;7177;48.572;7.838;2022-08-03T04:31:41;20.10;99.90
14192;DHT22;7177;48.572;7.838;2022-08-03T04:34:07;20.00;99.90
14192;DHT22;7177;48.572;7.838;2022-08-03T04:36:37;19.80;99.90
14192;DHT22;7177;48.572;7.838;2022-08-03T04:39:07;19.70;99.90
14192;DHT22;7177;48.572;7.838;2022-08-03T04:41:35;19.50;99.90
14192;DHT22;7177;48.572;7.838;2022-08-03T04:44:01;19.40;99.90
14192;DHT22;7177;48.572;7.838;2022-08-03T04:46:36;19.40;99.90
14192;DHT22;7177;48.572;7.838;2022-08-03T04:49:03;19.40;99.90
14192;DHT22;7177;48.572;7.838;2022-08-03T04:51:30;19.40;99.90
14192;DHT22;7177;48.572;7.838;2022-08-03T04:53:56;19.50;99.90
14192;DHT22;7177;48.572;7.838;2022-08-03T04:56:21;19.60;99.90
14192;DHT22;7177;48.572;7.838;2022-08-03T04:58:47;19.70;99.90
14192;DHT22;7177;48.572;7.838;2022-08-03T05:01:12;19.90;99.90
14192;DHT22;7177;48.572;7.838;2022-08-03T05:03:38;20.10;99.90
14192;DHT22;7177;48.572;7.838;2022-08-03T05:06:04;20.40;99.90
14192;DHT22;7177;48.572;7.838;2022-08-03T05:08:30;20.70;99.90
14192;DHT22;7177;48.572;7.838;2022-08-03T05:10:56;20.90;99.90
14192;DHT22;7177;48.572;7.838;2022-08-03T05:13:22;20.80;99.90
14192;DHT22;7177;48.572;7.838;2022-08-03T05:15:48;20.90;99.90
14192;DHT22;7177;48.572;7.838;2022-08-03T05:18:13;21.00;99.90
14192;DHT22;7177;48.572;7.838;2022-08-03T05:20:39;21.00;99.90
14192;DHT22;7177;48.572;7.838;2022-08-03T05:23:04;21.00;99.90
14192;DHT22;7177;48.572;7.838;2022-08-03T05:25:30;21.00;99.90
14192;DHT22;7177;48.572;7.838;2022-08-03T05:27:56;20.90;99.90
14192;DHT22;7177;48.572;7.838;2022-08-03T05:30:21;20.90;99.90
14192;DHT22;7177;48.572;7.838;2022-08-03T05:32:47;20.90;99.90
14192;DHT22;7177;48.572;7.838;2022-08-03T05:35:12;20.90;99.90
14192;DHT22;7177;48.572;7.838;2022-08-03T05:37:38;21.10;99.90
14192;DHT22;7177;48.572;7.838;2022-08-03T05:40:04;21.30;99.90
14192;DHT22;7177;48.572;7.838;2022-08-03T05:42:30;21.50;99.90
14192;DHT22;7177;48.572;7.838;2022-08-03T05:44:55;21.60;99.90
14192;DHT22;7177;48.572;7.838;2022-08-03T05:47:21;21.80;99.90
14192;DHT22;7177;48.572;7.838;2022-08-03T05:49:46;21.90;99.90
14192;DHT22;7177;48.572;7.838;2022-08-03T05:52:12;22.20;99.90
14192;DHT22;7177;48.572;7.838;2022-08-03T05:54:38;22.30;99.90
14192;DHT22;7177;48.572;7.838;2022-08-03T05:57:03;22.30;99.90
14192;DHT22;7177;48.572;7.838;2022-08-03T05:59:29;22.40;99.90
14192;DHT22;7177;48.572;7.838;2022-08-03T06:01:54;22.50;99.90
14192;DHT22;7177;48.572;7.838;2022-08-03T06:04:20;22.60;99.90
14192;DHT22;7177;48.572;7.838;2022-08-03T06:06:46;22.70;99.90
14192;DHT22;7177;48.572;7.838;2022-08-03T06:09:12;22.70;99.90
14192;DHT22;7177;48.572;7.838;2022-08-03T06:11:38;22.90;99.90
14192;DHT22;7177;48.572;7.838;2022-08-03T06:14:04;23.00;99.90
14192;DHT22;7177;48.572;7.838;2022-08-03T06:16:30;23.00;99.90
14192;DHT22;7177;48.572;7.838;2022-08-03T06:18:56;23.20;99.90
14192;DHT22;7177;48.572;7.838;2022-08-03T06:21:22;23.30;99.90
14192;DHT22;7177;48.572;7.838;2022-08-03T06:23:47;23.40;99.90
14192;DHT22;7177;48.572;7.838;2022-08-03T06:26:13;23.40;99.90
14192;DHT22;7177;48.572;7.838;2022-08-03T06:28:39;23.60;99.90
14192;DHT22;7177;48.572;7.838;2022-08-03T06:31:04;23.70;99.90
14192;DHT22;7177;48.572;7.838;2022-08-03T06:33:30;23.90;99.90
14192;DHT22;7177;48.572;7.838;2022-08-03T06:35:55;24.10;99.90
14192;DHT22;7177;48.572;7.838;2022-08-03T06:38:21;24.00;99.90
14192;DHT22;7177;48.572;7.838;2022-08-03T06:40:47;24.10;99.90
14192;DHT22;7177;48.572;7.838;2022-08-03T06:43:13;24.20;99.90
14192;DHT22;7177;48.572;7.838;2022-08-03T06:45:40;24.30;99.90
14192;DHT22;7177;48.572;7.838;2022-08-03T06:48:07;24.40;99.90
14192;DHT22;7177;48.572;7.838;2022-08-03T06:50:34;24.60;99.90
14192;DHT22;7177;48.572;7.838;2022-08-03T06:53:00;24.90;99.90
14192;DHT22;7177;48.572;7.838;2022-08-03T06:55:26;25.10;99.90
14192;DHT22;7177;48.572;7.838;2022-08-03T06:57:52;25.20;99.90
14192;DHT22;7177;48.572;7.838;2022-08-03T07:00:18;25.30;99.90
14192;DHT22;7177;48.572;7.838;2022-08-03T07:02:44;25.40;99.90
14192;DHT22;7177;48.572;7.838;2022-08-03T07:05:10;25.50;99.90
14192;DHT22;7177;48.572;7.838;2022-08-03T07:07:36;25.40;99.90
14192;DHT22;7177;48.572;7.838;2022-08-03T07:10:03;25.40;99.90
14192;DHT22;7177;48.572;7.838;2022-08-03T07:12:30;25.60;99.90
14192;DHT22;7177;48.572;7.838;2022-08-03T07:14:56;25.80;99.90
14192;DHT22;7177;48.572;7.838;2022-08-03T07:17:22;25.90;99.90
14192;DHT22;7177;48.572;7.838;2022-08-03T07:19:48;26.00;99.90
14192;DHT22;7177;48.572;7.838;2022-08-03T07:22:14;26.10;99.90
14192;DHT22;7177;48.572;7.838;2022-08-03T07:24:39;26.30;99.90
14192;DHT22;7177;48.572;7.838;2022-08-03T07:27:06;26.70;99.90
14192;DHT22;7177;48.572;7.838;2022-08-03T07:29:33;26.70;99.90
14192;DHT22;7177;48.572;7.838;2022-08-03T07:31:59;26.70;99.90
14192;DHT22;7177;48.572;7.838;2022-08-03T07:34:25;26.60;99.90
14192;DHT22;7177;48.572;7.838;2022-08-03T07:36:51;26.60;99.90
14192;DHT22;7177;48.572;7.838;2022-08-03T07:39:16;26.60;99.90
14192;DHT22;7177;48.572;7.838;2022-08-03T07:41:42;26.80;99.90
14192;DHT22;7177;48.572;7.838;2022-08-03T07:44:07;27.10;99.90
14192;DHT22;7177;48.572;7.838;2022-08-03T07:46:32;27.40;99.90
14192;DHT22;7177;48.572;7.838;2022-08-03T07:48:58;27.70;99.90
14192;DHT22;7177;48.572;7.838;2022-08-03T07:51:24;27.70;99.90
14192;DHT22;7177;48.572;7.838;2022-08-03T07:53:49;28.10;99.90
14192;DHT22;7177;48.572;7.838;2022-08-03T07:56:15;28.10;99.90
14192;DHT22;7177;48.572;7.838;2022-08-03T07:58:41;28.30;99.90
14192;DHT22;7177;48.572;7.838;2022-08-03T08:01:06;28.40;99.90
14192;DHT22;7177;48.572;7.838;2022-08-03T08:03:32;28.90;99.90
14192;DHT22;7177;48.572;7.838;2022-08-03T08:05:58;29.20;99.90
14192;DHT22;7177;48.572;7.838;2022-08-03T08:08:23;29.70;99.90
14192;DHT22;7177;48.572;7.838;2022-08-03T08:10:49;29.70;99.90
14192;DHT22;7177;48.572;7.838;2022-08-03T08:13:14;29.90;99.50
14192;DHT22;7177;48.572;7.838;2022-08-03T08:15:40;30.10;98.50
14192;DHT22;7177;48.572;7.838;2022-08-03T08:18:05;30.20;98.00
14192;DHT22;7177;48.572;7.838;2022-08-03T08:20:33;30.30;97.30
14192;DHT22;7177;48.572;7.838;2022-08-03T08:23:01;30.10;97.10
14192;DHT22;7177;48.572;7.838;2022-08-03T08:25:28;30.10;97.20
14192;DHT22;7177;48.572;7.838;2022-08-03T08:27:53;30.30;96.90
14192;DHT22;7177;48.572;7.838;2022-08-03T08:30:21;30.60;95.60
14192;DHT22;7177;48.572;7.838;2022-08-03T08:32:48;30.80;95.80
14192;DHT22;7177;48.572;7.838;2022-08-03T08:35:14;31.30;95.10
14192;DHT22;7177;48.572;7.838;2022-08-03T08:37:40;31.60;93.60
14192;DHT22;7177;48.572;7.838;2022-08-03T08:40:07;32.00;92.60
14192;DHT22;7177;48.572;7.838;2022-08-03T08:42:35;32.00;92.10
14192;DHT22;7177;48.572;7.838;2022-08-03T08:45:02;31.80;91.50
14192;DHT22;7177;48.572;7.838;2022-08-03T08:47:31;31.60;91.60
14192;DHT22;7177;48.572;7.838;2022-08-03T08:49:58;31.80;91.70
14192;DHT22;7177;48.572;7.838;2022-08-03T08:52:25;32.00;91.70
14192;DHT22;7177;48.572;7.838;2022-08-03T08:54:55;32.20;90.80
14192;DHT22;7177;48.572;7.838;2022-08-03T08:57:23;32.20;90.80
14192;DHT22;7177;48.572;7.838;2022-08-03T08:59:50;32.50;90.30
14192;DHT22;7177;48.572;7.838;2022-08-03T09:02:16;33.00;90.50
14192;DHT22;7177;48.572;7.838;2022-08-03T09:04:42;33.50;89.10
14192;DHT22;7177;48.572;7.838;2022-08-03T09:07:09;34.00;86.30
14192;DHT22;7177;48.572;7.838;2022-08-03T09:09:35;34.50;84.30
14192;DHT22;7177;48.572;7.838;2022-08-03T09:12:00;34.70;83.70
14192;DHT22;7177;48.572;7.838;2022-08-03T09:14:26;34.90;81.00
14192;DHT22;7177;48.572;7.838;2022-08-03T09:16:58;34.60;81.10
14192;DHT22;7177;48.572;7.838;2022-08-03T09:19:27;34.60;79.80
14192;DHT22;7177;48.572;7.838;2022-08-03T09:22:16;35.00;79.10
14192;DHT22;7177;48.572;7.838;2022-08-03T09:25:01;35.20;77.70
14192;DHT22;7177;48.572;7.838;2022-08-03T09:27:28;34.90;77.30
14192;DHT22;7177;48.572;7.838;2022-08-03T09:30:16;35.10;75.80
14192;DHT22;7177;48.572;7.838;2022-08-03T09:32:42;34.60;75.50
14192;DHT22;7177;48.572;7.838;2022-08-03T09:35:11;34.50;75.80
14192;DHT22;7177;48.572;7.838;2022-08-03T09:37:38;34.70;75.30
14192;DHT22;7177;48.572;7.838;2022-08-03T09:40:04;35.10;75.50
14192;DHT22;7177;48.572;7.838;2022-08-03T09:42:30;35.40;73.70
14192;DHT22;7177;48.572;7.838;2022-08-03T09:44:55;35.70;72.80
14192;DHT22;7177;48.572;7.838;2022-08-03T09:47:30;35.80;73.50
14192;DHT22;7177;48.572;7.838;2022-08-03T09:50:00;36.20;72.10
14192;DHT22;7177;48.572;7.838;2022-08-03T09:52:44;36.50;72.20
14192;DHT22;7177;48.572;7.838;2022-08-03T09:55:13;37.00;68.40
14192;DHT22;7177;48.572;7.838;2022-08-03T09:57:39;37.20;69.30
14192;DHT22;7177;48.572;7.838;2022-08-03T10:00:13;37.60;66.70
14192;DHT22;7177;48.572;7.838;2022-08-03T10:02:40;37.60;65.30
14192;DHT22;7177;48.572;7.838;2022-08-03T10:05:07;37.70;64.60
14192;DHT22;7177;48.572;7.838;2022-08-03T10:07:44;37.80;62.10
14192;DHT22;7177;48.572;7.838;2022-08-03T10:10:10;37.90;63.50
14192;DHT22;7177;48.572;7.838;2022-08-03T10:12:37;38.00;63.30
14192;DHT22;7177;48.572;7.838;2022-08-03T10:15:04;38.20;63.20
14192;DHT22;7177;48.572;7.838;2022-08-03T10:17:30;38.30;61.20
14192;DHT22;7177;48.572;7.838;2022-08-03T10:19:55;38.70;60.40
14192;DHT22;7177;48.572;7.838;2022-08-03T10:22:29;38.80;59.60
14192;DHT22;7177;48.572;7.838;2022-08-03T10:25:06;38.40;58.80
14192;DHT22;7177;48.572;7.838;2022-08-03T10:27:40;38.30;59.80
14192;DHT22;7177;48.572;7.838;2022-08-03T10:30:07;38.70;58.90
14192;DHT22;7177;48.572;7.838;2022-08-03T10:32:40;38.80;58.40
14192;DHT22;7177;48.572;7.838;2022-08-03T10:35:18;38.50;57.80
14192;DHT22;7177;48.572;7.838;2022-08-03T10:40:21;38.60;56.70
14192;DHT22;7177;48.572;7.838;2022-08-03T10:42:50;38.20;54.80
14192;DHT22;7177;48.572;7.838;2022-08-03T10:45:21;37.70;56.00
14192;DHT22;7177;48.572;7.838;2022-08-03T10:47:48;37.50;56.10
14192;DHT22;7177;48.572;7.838;2022-08-03T10:50:16;37.20;56.10
14192;DHT22;7177;48.572;7.838;2022-08-03T10:53:03;37.40;56.20
14192;DHT22;7177;48.572;7.838;2022-08-03T11:01:04;37.70;54.60
14192;DHT22;7177;48.572;7.838;2022-08-03T11:03:30;37.70;55.20
14192;DHT22;7177;48.572;7.838;2022-08-03T11:06:24;38.10;54.20
14192;DHT22;7177;48.572;7.838;2022-08-03T11:11:37;38.20;54.40
14192;DHT22;7177;48.572;7.838;2022-08-03T11:16:38;37.90;55.50
14192;DHT22;7177;48.572;7.838;2022-08-03T11:19:14;37.90;54.40
14192;DHT22;7177;48.572;7.838;2022-08-03T11:27:33;37.50;55.10
14192;DHT22;7177;48.572;7.838;2022-08-03T11:30:07;37.80;53.90
14192;DHT22;7177;48.572;7.838;2022-08-03T11:37:36;38.80;51.90
14192;DHT22;7177;48.572;7.838;2022-08-03T11:40:46;38.70;50.80
14192;DHT22;7177;48.572;7.838;2022-08-03T11:46:00;39.20;50.60
14192;DHT22;7177;48.572;7.838;2022-08-03T11:51:00;39.50;49.20
14192;DHT22;7177;48.572;7.838;2022-08-03T11:53:26;39.70;49.30
14192;DHT22;7177;48.572;7.838;2022-08-03T11:55:52;39.40;49.10
14192;DHT22;7177;48.572;7.838;2022-08-03T11:58:22;39.10;49.70
14192;DHT22;7177;48.572;7.838;2022-08-03T12:00:49;39.10;48.80
14192;DHT22;7177;48.572;7.838;2022-08-03T12:03:19;38.90;48.90
14192;DHT22;7177;48.572;7.838;2022-08-03T12:05:52;39.00;48.90
14192;DHT22;7177;48.572;7.838;2022-08-03T12:08:39;38.40;49.50
14192;DHT22;7177;48.572;7.838;2022-08-03T12:11:05;38.50;48.50
14192;DHT22;7177;48.572;7.838;2022-08-03T12:13:41;38.80;49.80
14192;DHT22;7177;48.572;7.838;2022-08-03T12:16:07;39.50;47.90
14192;DHT22;7177;48.572;7.838;2022-08-03T12:18:33;39.30;47.90
14192;DHT22;7177;48.572;7.838;2022-08-03T12:21:07;39.50;47.60
14192;DHT22;7177;48.572;7.838;2022-08-03T12:23:34;40.20;46.90
14192;DHT22;7177;48.572;7.838;2022-08-03T12:26:05;40.60;44.60
14192;DHT22;7177;48.572;7.838;2022-08-03T12:28:30;40.60;45.50
14192;DHT22;7177;48.572;7.838;2022-08-03T12:31:03;40.10;45.80
14192;DHT22;7177;48.572;7.838;2022-08-03T12:33:30;40.30;46.40
14192;DHT22;7177;48.572;7.838;2022-08-03T12:36:08;40.30;42.80
14192;DHT22;7177;48.572;7.838;2022-08-03T12:38:36;40.10;42.40
14192;DHT22;7177;48.572;7.838;2022-08-03T12:41:09;40.00;43.90
14192;DHT22;7177;48.572;7.838;2022-08-03T12:43:48;39.90;44.40
14192;DHT22;7177;48.572;7.838;2022-08-03T12:46:15;39.90;43.50
14192;DHT22;7177;48.572;7.838;2022-08-03T12:49:17;39.40;43.80
14192;DHT22;7177;48.572;7.838;2022-08-03T12:54:16;38.80;44.40
14192;DHT22;7177;48.572;7.838;2022-08-03T12:57:09;39.10;44.40
14192;DHT22;7177;48.572;7.838;2022-08-03T12:59:39;39.50;44.70
14192;DHT22;7177;48.572;7.838;2022-08-03T13:04:43;39.20;44.40
14192;DHT22;7177;48.572;7.838;2022-08-03T13:07:10;39.10;45.00
14192;DHT22;7177;48.572;7.838;2022-08-03T13:09:50;39.20;43.50
14192;DHT22;7177;48.572;7.838;2022-08-03T13:12:19;38.90;44.20
14192;DHT22;7177;48.572;7.838;2022-08-03T13:14:57;39.20;44.80
14192;DHT22;7177;48.572;7.838;2022-08-03T13:17:23;39.50;43.40
14192;DHT22;7177;48.572;7.838;2022-08-03T13:19:49;39.70;43.70
14192;DHT22;7177;48.572;7.838;2022-08-03T13:22:20;39.60;42.50
14192;DHT22;7177;48.572;7.838;2022-08-03T13:24:47;39.90;42.70
14192;DHT22;7177;48.572;7.838;2022-08-03T13:27:13;39.80;42.40
14192;DHT22;7177;48.572;7.838;2022-08-03T13:29:39;39.90;42.30
14192;DHT22;7177;48.572;7.838;2022-08-03T13:32:07;39.80;42.50
14192;DHT22;7177;48.572;7.838;2022-08-03T13:34:32;39.40;42.40
14192;DHT22;7177;48.572;7.838;2022-08-03T13:36:58;39.10;41.90
14192;DHT22;7177;48.572;7.838;2022-08-03T13:39:23;39.00;43.10
14192;DHT22;7177;48.572;7.838;2022-08-03T13:41:49;39.40;44.80
14192;DHT22;7177;48.572;7.838;2022-08-03T13:44:15;39.10;44.80
14192;DHT22;7177;48.572;7.838;2022-08-03T13:46:40;38.60;44.70
14192;DHT22;7177;48.572;7.838;2022-08-03T13:49:07;38.80;44.80
14192;DHT22;7177;48.572;7.838;2022-08-03T13:51:33;39.30;44.20
14192;DHT22;7177;48.572;7.838;2022-08-03T13:53:58;39.30;43.70
14192;DHT22;7177;48.572;7.838;2022-08-03T13:56:28;39.80;43.30
14192;DHT22;7177;48.572;7.838;2022-08-03T13:58:54;39.60;43.30
14192;DHT22;7177;48.572;7.838;2022-08-03T14:01:20;39.60;43.50
14192;DHT22;7177;48.572;7.838;2022-08-03T14:03:46;39.80;42.70
14192;DHT22;7177;48.572;7.838;2022-08-03T14:06:14;39.70;42.10
14192;DHT22;7177;48.572;7.838;2022-08-03T14:08:40;39.80;41.70
14192;DHT22;7177;48.572;7.838;2022-08-03T14:11:05;39.30;42.10
14192;DHT22;7177;48.572;7.838;2022-08-03T14:13:31;38.70;42.40
14192;DHT22;7177;48.572;7.838;2022-08-03T14:15:57;38.70;42.40
14192;DHT22;7177;48.572;7.838;2022-08-03T14:18:22;38.80;42.80
14192;DHT22;7177;48.572;7.838;2022-08-03T14:20:48;39.10;42.20
14192;DHT22;7177;48.572;7.838;2022-08-03T14:23:13;39.30;40.80
14192;DHT22;7177;48.572;7.838;2022-08-03T14:25:39;39.30;40.30
14192;DHT22;7177;48.572;7.838;2022-08-03T14:28:08;39.00;42.00
14192;DHT22;7177;48.572;7.838;2022-08-03T14:30:34;39.30;41.00
14192;DHT22;7177;48.572;7.838;2022-08-03T14:33:00;39.50;40.10
14192;DHT22;7177;48.572;7.838;2022-08-03T14:35:26;39.50;39.40
14192;DHT22;7177;48.572;7.838;2022-08-03T14:37:51;39.40;40.30
14192;DHT22;7177;48.572;7.838;2022-08-03T14:40:18;39.10;40.20
14192;DHT22;7177;48.572;7.838;2022-08-03T14:42:43;39.20;39.60
14192;DHT22;7177;48.572;7.838;2022-08-03T14:45:09;38.80;38.30
14192;DHT22;7177;48.572;7.838;2022-08-03T14:47:35;38.90;36.80
14192;DHT22;7177;48.572;7.838;2022-08-03T14:50:00;39.30;35.70
14192;DHT22;7177;48.572;7.838;2022-08-03T14:52:29;39.50;34.40
14192;DHT22;7177;48.572;7.838;2022-08-03T14:54:54;39.80;34.20
14192;DHT22;7177;48.572;7.838;2022-08-03T14:57:20;39.90;33.70
14192;DHT22;7177;48.572;7.838;2022-08-03T14:59:45;39.70;35.40
14192;DHT22;7177;48.572;7.838;2022-08-03T15:02:11;39.50;35.20
14192;DHT22;7177;48.572;7.838;2022-08-03T15:04:37;39.30;36.80
14192;DHT22;7177;48.572;7.838;2022-08-03T15:07:02;39.40;37.70
14192;DHT22;7177;48.572;7.838;2022-08-03T15:09:28;39.40;39.20
14192;DHT22;7177;48.572;7.838;2022-08-03T15:11:54;39.30;38.80
14192;DHT22;7177;48.572;7.838;2022-08-03T15:14:19;39.30;39.00
14192;DHT22;7177;48.572;7.838;2022-08-03T15:16:45;39.20;39.10
14192;DHT22;7177;48.572;7.838;2022-08-03T15:19:10;39.00;40.00
14192;DHT22;7177;48.572;7.838;2022-08-03T15:21:36;39.00;40.40
14192;DHT22;7177;48.572;7.838;2022-08-03T15:24:01;39.40;40.60
14192;DHT22;7177;48.572;7.838;2022-08-03T15:26:27;39.60;40.10
14192;DHT22;7177;48.572;7.838;2022-08-03T15:28:52;39.90;40.40
14192;DHT22;7177;48.572;7.838;2022-08-03T15:31:22;40.00;40.20
14192;DHT22;7177;48.572;7.838;2022-08-03T15:33:48;40.20;39.80
14192;DHT22;7177;48.572;7.838;2022-08-03T15:36:15;40.40;40.10
14192;DHT22;7177;48.572;7.838;2022-08-03T15:38:41;40.50;40.00
14192;DHT22;7177;48.572;7.838;2022-08-03T15:41:06;40.60;39.70
14192;DHT22;7177;48.572;7.838;2022-08-03T15:43:32;40.40;39.30
14192;DHT22;7177;48.572;7.838;2022-08-03T15:45:57;40.30;39.70
14192;DHT22;7177;48.572;7.838;2022-08-03T15:48:23;40.20;39.80
14192;DHT22;7177;48.572;7.838;2022-08-03T15:50:50;39.90;40.60
14192;DHT22;7177;48.572;7.838;2022-08-03T15:53:15;40.00;40.70
14192;DHT22;7177;48.572;7.838;2022-08-03T15:55:41;40.20;39.70
14192;DHT22;7177;48.572;7.838;2022-08-03T15:58:08;39.70;40.20
14192;DHT22;7177;48.572;7.838;2022-08-03T16:00:34;39.30;40.60
14192;DHT22;7177;48.572;7.838;2022-08-03T16:03:00;39.00;40.80
14192;DHT22;7177;48.572;7.838;2022-08-03T16:05:26;38.80;41.80
14192;DHT22;7177;48.572;7.838;2022-08-03T16:07:51;38.80;42.50
14192;DHT22;7177;48.572;7.838;2022-08-03T16:10:18;39.10;41.20
14192;DHT22;7177;48.572;7.838;2022-08-03T16:12:44;39.30;41.00
14192;DHT22;7177;48.572;7.838;2022-08-03T16:15:11;39.40;41.20
14192;DHT22;7177;48.572;7.838;2022-08-03T16:17:38;39.70;40.60
14192;DHT22;7177;48.572;7.838;2022-08-03T16:20:08;39.60;41.70
14192;DHT22;7177;48.572;7.838;2022-08-03T16:22:42;39.50;40.60
14192;DHT22;7177;48.572;7.838;2022-08-03T16:25:09;39.30;41.00
14192;DHT22;7177;48.572;7.838;2022-08-03T16:27:35;39.20;41.40
14192;DHT22;7177;48.572;7.838;2022-08-03T16:30:00;39.00;41.90
14192;DHT22;7177;48.572;7.838;2022-08-03T16:32:26;39.00;41.90
14192;DHT22;7177;48.572;7.838;2022-08-03T16:34:51;39.00;44.30
14192;DHT22;7177;48.572;7.838;2022-08-03T16:37:17;38.80;42.30
14192;DHT22;7177;48.572;7.838;2022-08-03T16:39:42;38.50;42.40
14192;DHT22;7177;48.572;7.838;2022-08-03T16:42:08;38.20;42.90